Flight Track Log - Related Links

Times and Time Zones

All times are in EDT time to prevent confusion due to time zone crossing. See the N248CG flight status page for this flight to view local times or setup timezone preferences in your user account.

Time Position Orientation Groundspeed Altitude Reporting Facility
EDT Latitude Longitude Course Direction KTS MPH feet Rate Location/Type
Thu 05:13:52 PM 30.2878 -87.6672 49° Northeast 65 75 400  Level Jacksonville Center
Thu 05:14:28 PM 30.2964 -87.6556 49° Northeast 80 92 1,100 1,049 Climbing Jacksonville Center
Thu 05:15:35 PM 30.3303 -87.6475 12° North 110 127 2,200 985 Climbing Jacksonville Center
Thu 05:16:42 PM 30.3583 -87.6731 322° Northwest 133 153 3,300 844 Climbing Jacksonville Center
Thu 05:17:43 PM 30.3911 -87.6964 328° Northwest 134 154 4,000 689 Climbing Jacksonville Center
Thu 05:18:44 PM 30.4283 -87.7056 348° North 129 148 4,700 672 Climbing Jacksonville Center
Thu 05:19:39 PM 30.4614 -87.7119 351° North 133 153 5,300 655 Climbing Jacksonville Center
Thu 05:20:34 PM 30.4928 -87.7111 North 131 151 5,900 730 Climbing Jacksonville Center
Thu 05:21:34 PM 30.5322 -87.7181 351° North 132 152 6,700 710 Climbing Jacksonville Center
Thu 05:23:23 PM 30.5947 -87.7186 360° North 127 146 7,900 632 Climbing Houston Center
Thu 05:24:25 PM 30.6308 -87.7239 353° North 130 150 8,500 629 Climbing Houston Center
Thu 05:25:27 PM 30.6717 -87.7472 334° Northwest 139 160 9,200 629 Climbing Houston Center
Thu 05:26:29 PM 30.7064 -87.7667 334° Northwest 140 161 9,800 532 Climbing Houston Center
Thu 05:27:31 PM 30.7414 -87.7872 333° Northwest 141 162 10,300 435 Climbing Houston Center
Thu 05:28:33 PM 30.7792 -87.8006 343° North 142 163 10,700 339 Climbing Houston Center
Thu 05:29:35 PM 30.8175 -87.7889 15° North 143 165 11,000 145 Climbing Houston Center
Thu 05:30:37 PM 30.8603 -87.7764 14° North 152 175 11,000  Level Houston Center
Thu 05:31:39 PM 30.9161 -87.7603 14° North 168 193 11,000  Level Houston Center
Thu 05:32:41 PM 30.9628 -87.7472 13° North 173 199 11,000  Level Houston Center
Thu 05:33:43 PM 31.0083 -87.7322 16° North 171 197 11,000 -48 Level Houston Center
Thu 05:34:45 PM 31.0444 -87.6972 40° Northeast 169 194 10,900  Descending Houston Center
Thu 05:35:47 PM 31.0825 -87.6681 33° Northeast 166 191 11,000 48 Climbing Houston Center
Thu 05:36:49 PM 31.1208 -87.6364 35° Northeast 168 193 11,000 48 Level Houston Center
Thu 05:37:51 PM 31.1669 -87.5969 36° Northeast 171 197 11,100 48 Climbing Houston Center
Thu 05:38:53 PM 31.2047 -87.5653 36° Northeast 170 196 11,100 -48 Level Houston Center
Thu 05:39:55 PM 31.2425 -87.5328 36° Northeast 169 194 11,000 -97 Descending Houston Center
Thu 05:40:57 PM 31.2803 -87.5000 37° Northeast 170 196 10,900 -97 Descending Houston Center
Thu 05:41:59 PM 31.3183 -87.4656 38° Northeast 171 197 10,800  Descending Houston Center
Thu 05:43:01 PM 31.3642 -87.4275 35° Northeast 170 196 10,900 109 Climbing Houston Center
Thu 05:43:49 PM 31.3942 -87.4031 35° Northeast 166 191 11,000 111 Climbing Atlanta Center
Thu 05:44:49 PM 31.4306 -87.3703 38° Northeast 166 191 11,100  Climbing Atlanta Center
Thu 05:45:49 PM 31.4689 -87.3378 36° Northeast 166 191 11,000 -50 Descending Atlanta Center
Thu 05:46:49 PM 31.5053 -87.3050 38° Northeast 161 185 11,000  Level Atlanta Center
Thu 05:47:49 PM 31.5458 -87.2722 35° Northeast 161 185 11,000 50 Level Atlanta Center
Thu 05:48:49 PM 31.5861 -87.2444 30° Northeast 161 185 11,100  Climbing Atlanta Center
Thu 05:49:49 PM 31.6283 -87.2242 22° Northeast 161 185 11,000 -50 Descending Atlanta Center
Thu 05:50:49 PM 31.6708 -87.2011 25° Northeast 161 185 11,000  Level Atlanta Center
Thu 05:51:49 PM 31.7108 -87.1831 21° North 161 185 11,000  Level Atlanta Center
Thu 05:52:49 PM 31.7531 -87.1600 25° Northeast 161 185 11,000 -50 Level Atlanta Center
Thu 05:53:49 PM 31.7953 -87.1394 22° Northeast 161 185 10,900  Descending Atlanta Center
Thu 05:54:49 PM 31.8397 -87.1192 21° North 161 185 11,000  Climbing Atlanta Center
Thu 05:55:49 PM 31.8842 -87.0986 21° North 161 185 10,900 -50 Descending Atlanta Center
Thu 05:56:49 PM 31.9264 -87.0781 22° Northeast 161 185 10,900 50 Level Atlanta Center
Thu 05:57:49 PM 31.9706 -87.0575 22° Northeast 161 185 11,000 100 Climbing Atlanta Center
Thu 05:58:49 PM 32.0128 -87.0369 22° Northeast 161 185 11,100 50 Climbing Atlanta Center
Thu 05:59:49 PM 32.0550 -87.0161 23° Northeast 161 185 11,100  Level Atlanta Center
Thu 06:00:49 PM 32.0994 -86.9956 21° North 161 185 11,100  Level Atlanta Center
Thu 06:01:49 PM 32.1458 -86.9775 18° North 166 191 11,100 -50 Level Atlanta Center
Thu 06:02:49 PM 32.1903 -86.9544 24° Northeast 172 198 11,000 -50 Descending Atlanta Center
Thu 06:03:49 PM 32.2367 -86.9314 23° Northeast 172 198 11,000  Level Atlanta Center
Thu 06:04:49 PM 32.2808 -86.9108 21° North 167 192 11,000  Level Atlanta Center
Thu 06:05:49 PM 32.3253 -86.8900 22° Northeast 167 192 11,000  Level Atlanta Center
Thu 06:06:49 PM 32.3697 -86.8669 24° Northeast 167 192 11,000 50 Level Atlanta Center
Thu 06:07:49 PM 32.4117 -86.8486 20° North 167 192 11,100 50 Climbing Atlanta Center
Thu 06:08:49 PM 32.4539 -86.8278 23° Northeast 167 192 11,100  Level Atlanta Center
Thu 06:09:49 PM 32.4983 -86.8069 22° Northeast 167 192 11,100  Level Atlanta Center
Thu 06:10:49 PM 32.5406 -86.7861 23° Northeast 167 192 11,100 -50 Level Atlanta Center
Thu 06:11:49 PM 32.5828 -86.7653 23° Northeast 167 192 11,000 -100 Descending Atlanta Center
Thu 06:12:49 PM 32.6292 -86.7444 21° North 172 198 10,900  Descending Atlanta Center
Thu 06:13:49 PM 32.6669 -86.7258 23° Northeast 166 191 11,000 50 Climbing Atlanta Center
Thu 06:14:49 PM 32.7114 -86.7050 22° Northeast 161 185 11,000 -50 Level Atlanta Center
Thu 06:15:49 PM 32.7536 -86.6867 20° North 161 185 10,900 50 Descending Atlanta Center
Thu 06:16:49 PM 32.7956 -86.6656 23° Northeast 161 185 11,100 100 Climbing Atlanta Center
Thu 06:17:49 PM 32.8381 -86.6422 25° Northeast 161 185 11,100  Level Atlanta Center
Thu 06:18:49 PM 32.8842 -86.6211 21° North 161 185 11,100 -50 Level Atlanta Center
Thu 06:19:49 PM 32.9306 -86.6003 21° North 166 191 11,000 -50 Descending Atlanta Center
Thu 06:20:49 PM 32.9769 -86.5769 23° Northeast 173 199 11,000 -50 Level Atlanta Center
Thu 06:21:49 PM 33.0236 -86.5511 25° Northeast 173 199 10,900 -60 Descending Atlanta Center
Thu 06:22:29 PM 33.0528 -86.5419 15° North 181 208 10,900  Level Atlanta Center
Thu 06:22:49 PM 33.0697 -86.5325 25° Northeast 173 199 10,900 122 Level Atlanta Center
Thu 06:23:18 PM 33.0908 -86.5233 20° North 176 203 11,000 100 Climbing Atlanta Center
Thu 06:23:49 PM 33.1142 -86.5114 23° Northeast 173 199 11,000 -295 Level Atlanta Center
Thu 06:24:19 PM 33.1372 -86.5022 18° North 175 201 10,700 -600 Descending Atlanta Center
Thu 06:24:49 PM 33.1625 -86.4856 29° Northeast 173 199 10,400 -500 Descending Atlanta Center
Thu 06:25:19 PM 33.1858 -86.4764 18° North 194 223 10,200 -500 Descending Atlanta Center
Thu 06:25:49 PM 33.2131 -86.4622 24° Northeast 180 207 9,900 -590 Descending Atlanta Center
Thu 06:26:20 PM 33.2383 -86.4531 17° North 202 232 9,600 -600 Descending Atlanta Center
Thu 06:26:49 PM 33.2658 -86.4364 27° Northeast 191 220 9,300 -600 Descending Atlanta Center
Thu 06:27:20 PM 33.2911 -86.4269 17° North 203 234 9,000 -600 Descending Atlanta Center
Thu 06:27:49 PM 33.3186 -86.4103 27° Northeast 191 220 8,700 -590 Descending Atlanta Center
Thu 06:28:21 PM 33.3436 -86.4011 17° North 205 236 8,400 -600 Descending Atlanta Center
Thu 06:28:49 PM 33.3711 -86.3869 23° Northeast 191 220 8,100 -655 Descending Atlanta Center
Thu 06:29:16 PM 33.3900 -86.3775 23° Northeast 205 236 7,800 -700 Descending Atlanta Center
Thu 06:29:49 PM 33.4217 -86.3583 27° Northeast 191 220 7,400 -636 Descending Atlanta Center
Thu 06:30:22 PM 33.4469 -86.3492 17° North 206 237 7,100 -500 Descending Atlanta Center
Thu 06:30:49 PM 33.4764 -86.3350 22° Northeast 191 220 6,900 -787 Descending Atlanta Center
Thu 06:31:23 PM 33.5058 -86.3208 22° Northeast 202 232 6,300 -600 Descending Atlanta Center
Thu 06:31:49 PM 33.5167 -86.3111 37° Northeast 191 220 6,300 -492 Level Atlanta Center
Thu 06:32:24 PM 33.5586 -86.2972 15° North 203 234 5,800 -695 Descending Atlanta Center
Thu 06:33:24 PM 33.6069 -86.2711 24° Northeast 201 231 5,200 -397 Descending Atlanta Center
Thu 06:34:25 PM 33.6575 -86.2450 23° Northeast 191 220 5,000 -397 Descending Atlanta Center
Thu 06:35:25 PM 33.7081 -86.2239 19° North 194 223 4,400 -545 Descending Atlanta Center
Thu 06:36:26 PM 33.7586 -86.1978 23° Northeast 197 227 3,900 -246 Descending Atlanta Center
Thu 06:37:27 PM 33.8050 -86.1789 19° North 179 206 3,900  Level Atlanta Center
Thu 06:38:27 PM 33.8553 -86.1625 15° North 174 200 3,900 -189 Level Atlanta Center
Thu 06:39:34 PM 33.8933 -86.1258 39° Northeast 178 205 3,500 -358 Descending Atlanta Center
Thu 06:41:00 PM 33.9475 -86.0897 15° North  Level FlightAware Approximate
Thu 06:48:00 PM 33.9667 -86.0833 15° North  Level FlightAware Approximate
Thu 06:49:00 PM 33.9726 -86.0891 15° North  Level Estimated
Thu 06:50:00 PM 33.9726 -86.0891 15° North  Level Estimated
Thu 06:51:00 PM 33.9726 -86.0891 15° North  Level Estimated
Thu 06:52:00 PM 33.9726 -86.0891 15° North  Level Estimated
Thu 06:53:00 PM 33.9726 -86.0891 15° North  Level Estimated

Login

Don't have an account? Register now (free) for customized features, flight alerts, and more!